Tiempo atmosférico en la estación meteorológica de La Pobla de Benifassà-Fredes, Castelló/Castellón (1174 m.)



Fecha
DESCASC
Temp. máxima en grados centígrados (hora)
DESCASC
Temp. mínima en grados centígrados (hora)
DESCASC
Temp. media en grados centígrados
DESCASC
Racha de viento máxima en m/sg (hora)
DESCASC
Velocidad máxima media en intervalos de 10 minutos(hora)
DESCASC
Precipitaciones diarias en mm
DESCASC
Precipitaciones de 00:00 a 06:00 en mm
DESCASC
Precipitaciones de 06:00 a 12:00 en mm
DESCASC
Precipitaciones de 12:00 a 18:00 en mm
DESCASC
Precipitaciones de 18:00 a 24:00 en mm
DESCASC
17-09-2020 24.2 (15:20) 14.3 (22:20) 19.3 10.56 (14:30) 5 (14:30) 0 0 0 0 0
16-09-2020 25.2 (12:20) 15.4 (03:30) 20.3 7.22 (15:00) 4.17 (15:00) 0 0 0 0 0
15-09-2020 25.1 (13:20) 14.4 (07:50) 19.8 10 (15:50) 4.72 (16:20) 0 0 0 0 0
14-09-2020 24.4 (13:40) 14 (00:00) 19.2 8.89 (16:00) 5 (16:00) 0 0 0 0 0
13-09-2020 25.3 (12:40) 14.6 (00:00) 19.9 9.72 (15:20) 4.72 (15:20) 0 0 0 0 0
12-09-2020 25.3 (14:10) 12.7 (00:00) 19 8.06 (12:00) 4.17 (16:00) 0 0 0 0 0
11-09-2020 23.9 (14:00) 12.6 (00:00) 18.3 9.72 (04:40) 6.11 (05:00) 0 0 0 0 0
10-09-2020 23.3 (14:40) 11.3 (00:00) 17.3 8.33 (06:30) 5.28 (07:00) 0 0 0 0 0
09-09-2020 18.8 (14:00) 11.2 (00:00) 15 7.5 (10:30) 4.17 (10:50) 0 0 0 0 0
08-09-2020 20 (15:40) 7.4 (00:00) 13.7 9.17 (00:30) 5 (00:30) 0 0 0 0 0
07-09-2020 18.8 (16:20) 8 (07:30) 13.4 17.78 (09:30) 10.83 (08:30) 0.4 0.4 0 0 0
06-09-2020 24.1 (14:00) 10.8 (00:00) 17.5 11.67 (22:50) 7.22 (06:40) 2.2 0 0 0 2.2
05-09-2020 24.3 (14:00) 13.3 (00:00) 18.8 6.11 (14:10) 3.33 (17:10) 0 0 0 0 0
04-09-2020 23.3 (14:30) 13.4 (00:00) 18.3 8.89 (14:50) 3.89 (14:50) 0 0 0 0 0
03-09-2020 22.4 (14:00) 10.5 (00:00) 16.4 7.5 (13:10) 4.17 (15:50) 0 0 0 0 0
02-09-2020 21 (13:40) 10 (00:00) 15.5 9.72 (07:10) 6.67 (07:10) 0 0 0 0 0
01-09-2020 19.7 (14:20) 11.1 (00:00) 15.4 6.67 (13:00) 2.78 (13:10) 0 0 0 0 0
31-08-2020 20.3 (14:50) 6.3 (00:00) 13.3 13.89 (02:40) 8.33 (02:40) 0 0 0 0 0
30-08-2020 17.4 (16:30) 6.8 (00:00) 12.1 20.83 (03:00) 13.06 (04:40) 0 0 0 0 0
29-08-2020 17.3 (16:20) 9.6 (00:00) 13.4 17.78 (22:20) 10.28 (22:30) 0 0 0 0 0
28-08-2020 24.8 (14:20) 12.4 (00:00) 18.6 11.39 (23:40) 7.5 (23:59) 5.4 0 0 0 5.4
27-08-2020 26.5 (13:50) 18.3 (00:00) 22.4 6.39 (15:30) 3.33 (15:30) 0 0 0 0 0
26-08-2020 26.9 (15:10) 18.4 (00:00) 22.6 6.11 (03:00) 2.78 (15:50) 0 0 0 0 0
25-08-2020 26.7 (14:10) 16.8 (00:00) 21.8 6.67 (17:10) 3.61 (16:50) 0 0 0 0 0
24-08-2020 24.7 (13:50) 13.7 (00:00) 19.2 11.67 (08:10) 7.78 (08:20) 0 0 0 0 0
23-08-2020 23.6 (16:10) 13.6 (00:00) 18.6 11.94 (06:40) 7.22 (06:20) 0 0 0 0 0
22-08-2020 25.3 (15:00) 16.3 (00:00) 20.8 12.22 (07:50) 7.78 (04:00) 0 0 0 0 0
21-08-2020 27 (15:10) 15.8 (00:00) 21.4 6.67 (16:10) 3.33 (16:40) 0 0 0 0 0
20-08-2020 25.8 (12:20) 15.9 (00:00) 20.8 12.5 (16:10) 5.83 (16:10) 0 0 0 0 0
19-08-2020 26.7 (13:10) 16.3 (00:00) 21.5 8.89 (17:30) 5 (17:40) 0 0 0 0 0

Gráficas

Temp. máximas Temp. mínimas Temp. medias Precipitaciones Rachas de viento máximas Velocidades máximas media en intervalos de 10 minutos

Datos horarios

Fecha y hora oficial Temperatura (ºC) Velocidad del viento (km/h) Dirección del viento Racha (km/h) Dirección de racha Precipitación (mm) Presión (hPa) Tendencia (hPa) Humedad (%)
2020-09-17 23:00:00 14.3 4 Sudeste 12 Sudeste 0 -- -- 78
2020-09-17 22:00:00 14.8 4 Este 12 Este 0 -- -- 79
2020-09-17 21:00:00 15.9 4 Sudeste 20 Este 0 -- -- 74
2020-09-17 20:00:00 17.4 8 Este 24 Este 0 -- -- 72
2020-09-17 19:00:00 18.5 10 Este 26 Este 0 -- -- 80
2020-09-17 18:00:00 20.7 13 Este 28 Este 0 -- -- 69
2020-09-17 17:00:00 21.8 12 Este 28 Este 0 -- -- 56
2020-09-17 16:00:00 22.6 9 Este 35 Este 0 -- -- 57
2020-09-17 15:00:00 24.1 16 Este 38 Este 0 -- -- 43
2020-09-17 14:00:00 22.6 13 Este 33 Este 0 -- -- 38
2020-09-17 13:00:00 22.3 10 Este 24 Sudeste 0 -- -- 42
2020-09-17 12:00:00 20.5 5 Este 19 Sudeste 0 -- -- 48
2020-09-17 11:00:00 18.9 6 Sudeste 27 Sur 0 -- -- 52
2020-09-17 10:00:00 18.8 6 Sur 17 Sur 0 -- -- 47
2020-09-17 09:00:00 18.2 8 Sur 26 Sudeste 0 -- -- 49
2020-09-17 08:00:00 16.4 3 Sudeste 11 Este 0 -- -- 55
2020-09-17 07:00:00 16.6 2 Sudeste 14 Sudeste 0 -- -- 52
2020-09-17 06:00:00 16.3 5 Sudeste 14 Sudeste 0 -- -- 56
2020-09-17 05:00:00 16.2 2 Sudeste 12 Sudeste 0 -- -- 58
2020-09-17 04:00:00 16.6 5 Sudeste 12 Sudeste 0 -- -- 57
2020-09-17 03:00:00 15.8 3 Sur 5 Sudeste 0 -- -- 65
2020-09-17 02:00:00 16.4 2 Sudeste 6 Este 0 -- -- 69
2020-09-17 01:00:00 17.5 0 Calma 10 Sudeste 0 -- -- 59
2020-09-17 00:00:00 18 5 Sur 11 Sudeste 0 -- -- 57
2020-09-16 23:00:00 17.7 3 Sudeste 12 Sudeste 0 -- -- 63
2020-09-16 22:00:00 18.2 4 Sudeste 11 Sudeste 0 -- -- 65
2020-09-16 21:00:00 17.5 3 Sudeste 10 Sudeste 0 -- -- 67
2020-09-16 20:00:00 18.8 3 Sur 8 Sudeste 0 -- -- 76
2020-09-16 19:00:00 20.1 4 Sudeste 12 Este 0 -- -- 74
2020-09-16 18:00:00 21.3 6 Sudeste 17 Este 0 -- -- 71
2020-09-16 17:00:00 22.3 7 Este 22 Este 0 -- -- 71
2020-09-16 16:00:00 22.1 10 Este 24 Nordeste 0 -- -- 65
2020-09-16 15:00:00 24.5 15 Este 26 Nordeste 0 -- -- 52
2020-09-16 14:00:00 24.5 12 Este 23 Este 0 -- -- 50
2020-09-16 13:00:00 24.9 11 Este 24 Este 0 -- -- 45
2020-09-16 12:00:00 24.4 8 Este 17 Este 0 -- -- 47
2020-09-16 11:00:00 24.1 3 Este 11 Oeste 0 -- -- 45
2020-09-16 10:00:00 22.7 6 Oeste 14 Oeste 0 -- -- 48
2020-09-16 09:00:00 19.6 9 Oeste 17 Oeste 0 -- -- 56
2020-09-16 08:00:00 17.1 12 Oeste 17 Oeste 0 -- -- 63
2020-09-16 07:00:00 16.9 9 Oeste 15 Oeste 0 -- -- 64
2020-09-16 06:00:00 16.5 9 Oeste 12 Oeste 0 -- -- 65
2020-09-16 05:00:00 17.2 3 Sudeste 4 Sur 0 -- -- 57
2020-09-16 04:00:00 15.6 4 Sudoeste 7 Sudoeste 0 -- -- 62
2020-09-16 03:00:00 16 5 Sudoeste 8 Sudoeste 0 -- -- 63
2020-09-16 02:00:00 17.2 0 Calma 11 Sur 0 -- -- 65
2020-09-16 01:00:00 18.5 5 Sur 14 Sur 0 -- -- 56
2020-09-16 00:00:00 18.4 3 Sur 12 Sur 0 -- -- 61
2020-09-15 23:00:00 18.1 0 Calma 10 Sur 0 -- -- 62
2020-09-15 22:00:00 19.3 8 Sur 15 Sur 0 -- -- 56
2020-09-15 21:00:00 18.6 0 Calma 17 Sudeste 0 -- -- 62
2020-09-15 20:00:00 19.4 7 Sur 18 Sur 0 -- -- 56
2020-09-15 19:00:00 20.4 3 Sudeste 26 Este 0 -- -- 58
2020-09-15 18:00:00 21.4 15 Este 31 Este 0 -- -- 61
2020-09-15 17:00:00 21.8 14 Este 31 Este 0 -- -- 60
2020-09-15 16:00:00 22.3 13 Este 36 Este 0 -- -- 56
2020-09-15 15:00:00 23.9 10 Este 30 Este 0 -- -- 51
2020-09-15 14:00:00 23.4 13 Este 26 Este 0 -- -- 54
2020-09-15 13:00:00 24.5 11 Este 23 Este 0 -- -- 43
2020-09-15 12:00:00 24 10 Este 19 Este 0 -- -- 40
2020-09-15 11:00:00 22.4 6 Este 13 Nordeste 0 -- -- 44
2020-09-15 10:00:00 20.4 2 Noroeste 8 Oeste 0 -- -- 48
2020-09-15 09:00:00 16 5 Oeste 10 Oeste 0 -- -- 60
2020-09-15 08:00:00 14.6 7 Oeste 12 Oeste 0 -- -- 65
2020-09-15 07:00:00 15.6 6 Oeste 33 Sur 0 -- -- 61
2020-09-15 06:00:00 16.5 6 Norte 15 Noroeste 0 -- -- 56
2020-09-15 05:00:00 16.4 8 Noroeste 11 Noroeste 0 -- -- 56
2020-09-15 04:00:00 17.4 7 Sur 17 Sur 0 -- -- 53
2020-09-15 03:00:00 17.1 6 Sur 19 Sur 0 -- -- 53
2020-09-15 02:00:00 16.9 9 Sur 26 Sudeste 0 -- -- 54
2020-09-15 01:00:00 16.3 6 Sudeste 18 Sur 0 -- -- 59
2020-09-15 00:00:00 15.9 5 Sur 17 Sudeste 0 -- -- 74
2020-09-14 23:00:00 14.9 4 Sudeste 10 Sur 0 -- -- 87
2020-09-14 22:00:00 14.8 3 Este 7 Este 0 -- -- 86
2020-09-14 21:00:00 15.8 3 Este 12 Sudeste 0 -- -- 80
2020-09-14 20:00:00 17.7 4 Este 14 Este 0 -- -- 74
2020-09-14 19:00:00 18.6 6 Este 27 Sudeste 0 -- -- 68
2020-09-14 18:00:00 20.1 10 Este 29 Este 0 -- -- 61
2020-09-14 17:00:00 22.1 11 Este 29 Este 0 -- -- 58
2020-09-14 16:00:00 21.6 18 Este 32 Este 0 -- -- 55
2020-09-14 15:00:00 22 12 Este 29 Este 0 -- -- 52
2020-09-14 14:00:00 23.7 13 Este 32 Este 0 -- -- 50
2020-09-14 13:00:00 24.2 10 Este 24 Este 0 -- -- 44
2020-09-14 12:00:00 22.9 11 Este 23 Este 0 -- -- 44
2020-09-14 11:00:00 22.1 8 Este 18 Este 0 -- -- 43
2020-09-14 10:00:00 20.8 7 Este 17 Este 0 -- -- 45
2020-09-14 09:00:00 18.1 5 Sudeste 14 Este 0 -- -- 52
2020-09-14 08:00:00 14.1 2 Este 12 Este 0 -- -- 60
2020-09-14 07:00:00 14.2 3 Sudeste 13 Sudeste 0 -- -- 61
2020-09-14 06:00:00 14.4 0 Calma 12 Sudeste 0 -- -- 66
2020-09-14 05:00:00 15.3 5 Sudeste 15 Sudeste 0 -- -- 66
2020-09-14 04:00:00 14.2 3 Sudeste 11 Sudeste 0 -- -- 69
2020-09-14 03:00:00 14.5 2 Sudeste 9 Sudeste 0 -- -- 68
2020-09-14 02:00:00 14.4 3 Este 9 Sudeste 0 -- -- 66
2020-09-14 01:00:00 14.6 2 Este 6 Este 0 -- -- 64
2020-09-14 00:00:00 14.9 2 Este 9 Sudeste 0 -- -- 63
2020-09-13 23:00:00 14.8 3 Sudeste 9 Sudeste 0 -- -- 65
2020-09-13 22:00:00 14.9 2 Este 4 Este 0 -- -- 66
2020-09-13 21:00:00 15.9 2 Sudeste 11 Este 0 -- -- 64
2020-09-13 20:00:00 18.5 5 Este 21 Este 0 -- -- 56
2020-09-13 19:00:00 20.1 12 Este 27 Este 0 -- -- 51
2020-09-13 18:00:00 22 13 Este 29 Este 0 -- -- 47
2020-09-13 17:00:00 23.8 11 Este 30 Este 0 -- -- 43
2020-09-13 16:00:00 24.7 13 Este 35 Este 0 -- -- 41
2020-09-13 15:00:00 24.6 14 Este 32 Este 0 -- -- 43
2020-09-13 14:00:00 25.2 14 Este 29 Este 0 -- -- 41
2020-09-13 13:00:00 25.1 11 Sudeste 27 Este 0 -- -- 38
2020-09-13 12:00:00 24.7 9 Este 25 Este 0 -- -- 38
2020-09-13 11:00:00 23.4 10 Este 22 Este 0 -- -- 42
2020-09-13 10:00:00 22.4 7 Este 14 Este 0 -- -- 45
2020-09-13 09:00:00 19.7 3 Sudeste 11 Sudeste 0 -- -- 49
2020-09-13 08:00:00 16.8 4 Sur 8 Sur 0 -- -- 55
2020-09-13 07:00:00 16.1 5 Sur 8 Sur 0 -- -- 56
2020-09-13 06:00:00 16.4 4 Sur 9 Sur 0 -- -- 56
2020-09-13 05:00:00 16 4 Sur 11 Sudeste 0 -- -- 57
2020-09-13 04:00:00 16.1 4 Sur 9 Este 0 -- -- 58
2020-09-13 03:00:00 15.5 3 Sudeste 7 Sudeste 0 -- -- 59
2020-09-13 02:00:00 15.8 0 Calma 9 Sur 0 -- -- 58
2020-09-13 01:00:00 16.6 3 Sudeste 11 Sudeste 0 -- -- 55
2020-09-13 00:00:00 17.3 5 Sudeste 11 Sudeste 0 -- -- 53
2020-09-12 23:00:00 16.2 4 Sur 12 Sudeste 0 -- -- 65
2020-09-12 22:00:00 16.5 3 Sur 8 Sudeste 0 -- -- 68
2020-09-12 21:00:00 16.3 0 Calma 7 Sudeste 0 -- -- 68
2020-09-12 20:00:00 18.2 4 Este 14 Este 0 -- -- 62
2020-09-12 19:00:00 19.7 9 Este 21 Este 0 -- -- 57
2020-09-12 18:00:00 21.4 11 Este 22 Este 0 -- -- 54
2020-09-12 17:00:00 22.6 13 Este 27 Este 0 -- -- 51
2020-09-12 16:00:00 23.5 15 Este 28 Este 0 -- -- 51
2020-09-12 15:00:00 24.6 12 Este 28 Este 0 -- -- 45
2020-09-12 14:00:00 25.2 11 Este 25 Este 0 -- -- 36
2020-09-12 13:00:00 24.1 11 Este 27 Este 0 -- -- 39
2020-09-12 12:00:00 23.4 8 Sudeste 29 Este 0 -- -- 41
2020-09-12 11:00:00 22.3 8 Este 14 Este 0 -- -- 43
2020-09-12 10:00:00 20.5 5 Este 11 Nordeste 0 -- -- 47
2020-09-12 09:00:00 18.5 3 Este 8 Sudeste 0 -- -- 53
2020-09-12 08:00:00 13.5 4 Oeste 11 Oeste 0 -- -- 66
2020-09-12 07:00:00 13.8 8 Oeste 12 Oeste 0 -- -- 65
2020-09-12 06:00:00 14 6 Sudoeste 8 Sudoeste 0 -- -- 64
2020-09-12 05:00:00 14 5 Sudoeste 8 Sur 0 -- -- 63
2020-09-12 04:00:00 13.1 4 Sudoeste 9 Sudoeste 0 -- -- 64
2020-09-12 03:00:00 13.4 3 Oeste 6 Sur 0 -- -- 69
2020-09-12 02:00:00 13.6 2 Sur 5 Sur 0 -- -- 65
2020-09-12 01:00:00 13.1 0 Calma 7 Este 0 -- -- 73
2020-09-12 00:00:00 14.2 3 Este 7 Este 0 -- -- 68
2020-09-11 23:00:00 15.2 0 Calma 5 Sudeste 0 -- -- 66
2020-09-11 22:00:00 16.2 0 Calma 6 Sudeste 0 -- -- 61
2020-09-11 21:00:00 16.2 3 Sur 5 Sur 0 -- -- 62
2020-09-11 20:00:00 18.2 0 Calma 14 Este 0 -- -- 56
2020-09-11 19:00:00 20.1 6 Este 15 Este 0 -- -- 52
2020-09-11 18:00:00 21.3 7 Sudeste 24 Este 0 -- -- 50
2020-09-11 17:00:00 22.4 12 Este 26 Este 0 -- -- 50
2020-09-11 16:00:00 23.8 9 Este 21 Este 0 -- -- 46
2020-09-11 15:00:00 23.3 9 Este 22 Este 0 -- -- 46
2020-09-11 14:00:00 23.9 6 Noroeste 19 Noroeste 0 -- -- 33
2020-09-11 13:00:00 22.9 9 Norte 18 Noroeste 0 -- -- 39
2020-09-11 12:00:00 21.7 8 Noroeste 22 Oeste 0 -- -- 40
2020-09-11 11:00:00 19.8 10 Oeste 24 Oeste 0 -- -- 50
2020-09-11 10:00:00 17.4 16 Oeste 25 Oeste 0 -- -- 60
2020-09-11 09:00:00 14.7 15 Oeste 28 Oeste 0 -- -- 69
2020-09-11 08:00:00 13.2 18 Oeste 32 Oeste 0 -- -- 73
2020-09-11 07:00:00 12.7 16 Oeste 24 Oeste 0 -- -- 72
2020-09-11 06:00:00 13.2 16 Oeste 33 Oeste 0 -- -- 69
2020-09-11 05:00:00 13.9 22 Oeste 35 Oeste 0 -- -- 62
2020-09-11 04:00:00 14.1 22 Oeste 34 Oeste 0 -- -- 61
2020-09-11 03:00:00 14.4 19 Oeste 28 Oeste 0 -- -- 59
2020-09-11 02:00:00 14.5 14 Oeste 25 Oeste 0 -- -- 61
2020-09-11 01:00:00 14.8 9 Oeste 17 Oeste 0 -- -- 57
2020-09-11 00:00:00 15 5 Oeste 13 Oeste 0 -- -- 72
2020-09-10 23:00:00 16.6 4 Este 14 Este 0 -- -- 70
2020-09-10 22:00:00 16.5 3 Noroeste 11 Noroeste 0 -- -- 54
2020-09-10 21:00:00 17 6 Noroeste 13 Noroeste 0 -- -- 52
2020-09-10 20:00:00 18.1 5 Noroeste 15 Oeste 0 -- -- 57
2020-09-10 19:00:00 20.5 7 Norte 25 Noroeste 0 -- -- 53
2020-09-10 18:00:00 21.5 11 Norte 25 Noroeste 0 -- -- 40
2020-09-10 17:00:00 21.1 9 Noroeste 17 Noroeste 0 -- -- 44
2020-09-10 16:00:00 19.9 6 Este 19 Noroeste 0 -- -- 61
2020-09-10 15:00:00 21.9 8 Noroeste 24 Noroeste 0 -- -- 42
2020-09-10 14:00:00 21.9 10 Noroeste 27 Oeste 0 -- -- 43
2020-09-10 13:00:00 20.5 15 Oeste 30 Oeste 0 -- -- 51
2020-09-10 12:00:00 18.7 15 Oeste 30 Oeste 0 -- -- 57
2020-09-10 11:00:00 17.3 9 Oeste 18 Oeste 0 -- -- 67
2020-09-10 10:00:00 15 10 Oeste 26 Oeste 0 -- -- 80
2020-09-10 09:00:00 12.6 16 Oeste 27 Oeste 0 -- -- 90
2020-09-10 08:00:00 11.3 15 Oeste 26 Oeste 0 -- -- 93
2020-09-10 07:00:00 11.7 19 Oeste 30 Oeste 0 -- -- 91
2020-09-10 06:00:00 12.5 13 Oeste 25 Oeste 0 -- -- 84
2020-09-10 05:00:00 12.7 15 Noroeste 25 Noroeste 0 -- -- 83
2020-09-10 04:00:00 12.1 14 Oeste 21 Oeste 0 -- -- 85
2020-09-10 03:00:00 13 11 Oeste 18 Noroeste 0 -- -- 80
2020-09-10 02:00:00 12.7 10 Oeste 17 Oeste 0 -- -- 83
2020-09-10 01:00:00 13.2 9 Noroeste 16 Noroeste 0 -- -- 82
2020-09-10 00:00:00 13.8 7 Noroeste 13 Noroeste 0 -- -- 78
2020-09-09 23:00:00 13.3 5 Noroeste 13 Noroeste 0 -- -- 81
2020-09-09 22:00:00 13.2 7 Oeste 14 Oeste 0 -- -- 92
2020-09-09 21:00:00 14.6 2 Sur 6 Sudeste 0 -- -- 88
2020-09-09 20:00:00 15.3 4 Este 9 Este 0 -- -- 89
2020-09-09 19:00:00 16.2 5 Este 14 Este 0 -- -- 84
2020-09-09 18:00:00 17.6 7 Norte 23 Norte 0 -- -- 73
2020-09-09 17:00:00 17.8 2 Noroeste 19 Noroeste 0 -- -- 70
2020-09-09 16:00:00 17.1 4 Noroeste 16 Noroeste 0 -- -- 67
2020-09-09 15:00:00 18.6 7 Noroeste 20 Noroeste 0 -- -- 57
2020-09-09 14:00:00 18.8 10 Norte 27 Noroeste 0 -- -- 57
2020-09-09 13:00:00 17.1 10 Noroeste 26 Noroeste 0 -- -- 68
2020-09-09 12:00:00 15.6 8 Noroeste 23 Oeste 0 -- -- 75
2020-09-09 11:00:00 14 11 Noroeste 27 Oeste 0 -- -- 81
2020-09-09 10:00:00 13.1 12 Oeste 20 Oeste 0 -- -- 87
2020-09-09 09:00:00 12.5 8 Oeste 19 Oeste 0 -- -- 90
2020-09-09 08:00:00 12.5 8 Noroeste 14 Noroeste 0 -- -- 89
2020-09-09 07:00:00 12.7 4 Este 15 Este 0 -- -- 89
2020-09-09 06:00:00 12.8 5 Nordeste 17 Nordeste 0 -- -- 89
2020-09-09 05:00:00 11.2 4 Noroeste 10 Norte 0 -- -- 85
2020-09-09 04:00:00 11.4 5 Norte 15 Noroeste 0 -- -- 84
2020-09-09 03:00:00 11.4 3 Noroeste 15 Oeste 0 -- -- 84
2020-09-09 02:00:00 12.4 3 Oeste 12 Noroeste 0 -- -- 80
2020-09-09 01:00:00 12.2 5 Noroeste 9 Oeste 0 -- -- 81
2020-09-09 00:00:00 13.1 4 Este 10 Este 0 -- -- 77
2020-09-08 23:00:00 12.5 0 Calma 8 Nordeste 0 -- -- 75
2020-09-08 22:00:00 13.3 2 Este 7 Este 0 -- -- 72
2020-09-08 21:00:00 13.6 3 Este 7 Este 0 -- -- 66
2020-09-08 20:00:00 15 3 Este 8 Sudeste 0 -- -- 62
2020-09-08 19:00:00 16 4 Sudeste 16 Este 0 -- -- 57
2020-09-08 18:00:00 16.8 5 Este 23 Este 0 -- -- 51
2020-09-08 17:00:00 17.8 10 Este 27 Este 0 -- -- 45
2020-09-08 16:00:00 19.7 10 Sudeste 22 Este 0 -- -- 40
2020-09-08 15:00:00 19.5 8 Este 18 Este 0 -- -- 42
2020-09-08 14:00:00 18.1 6 Nordeste 22 Norte 0 -- -- 47
2020-09-08 13:00:00 17.9 9 Nordeste 22 Oeste 0 -- -- 45
2020-09-08 12:00:00 16.8 12 Oeste 21 Noroeste 0 -- -- 52
2020-09-08 11:00:00 14.9 8 Oeste 15 Oeste 0 -- -- 61
2020-09-08 10:00:00 11.3 11 Oeste 19 Oeste 0 -- -- 70
2020-09-08 09:00:00 9.7 12 Oeste 19 Sudoeste 0 -- -- 73
2020-09-08 08:00:00 7.8 10 Oeste 14 Oeste 0 -- -- 78
2020-09-08 07:00:00 7.5 9 Oeste 13 Sudoeste 0 -- -- 79
2020-09-08 06:00:00 7.8 9 Oeste 18 Oeste 0 -- -- 77
2020-09-08 05:00:00 7.7 13 Oeste 20 Oeste 0 -- -- 78
2020-09-08 04:00:00 7.7 11 Oeste 15 Oeste 0 -- -- 76
2020-09-08 03:00:00 7.7 6 Oeste 12 Oeste 0 -- -- 73
2020-09-08 02:00:00 9.1 9 Oeste 15 Oeste 0 -- -- 67
2020-09-08 01:00:00 9.9 10 Oeste 33 Oeste 0 -- -- 64
2020-09-08 00:00:00 10.3 8 Oeste 28 Noroeste 0 -- -- 62
2020-09-07 23:00:00 10.7 11 Noroeste 22 Oeste 0 -- -- 61
2020-09-07 22:00:00 10.4 6 Oeste 15 Oeste 0 -- -- 73
2020-09-07 21:00:00 11.8 3 Oeste 12 Sudeste 0 -- -- 82
2020-09-07 20:00:00 13.9 3 Este 14 Este 0 -- -- 73
2020-09-07 19:00:00 15.7 5 Este 26 Noroeste 0 -- -- 66
2020-09-07 18:00:00 17.6 10 Noroeste 27 Norte 0 -- -- 46
2020-09-07 17:00:00 17.7 17 Noroeste 34 Oeste 0 -- -- 47
2020-09-07 16:00:00 17.7 13 Noroeste 34 Noroeste 0 -- -- 49
2020-09-07 15:00:00 16.8 8 Noroeste 31 Oeste 0 -- -- 52
2020-09-07 14:00:00 16.7 12 Noroeste 30 Norte 0 -- -- 50
2020-09-07 13:00:00 16.3 8 Noroeste 46 Oeste 0 -- -- 53
2020-09-07 12:00:00 14.2 18 Oeste 45 Oeste 0 -- -- 58
2020-09-07 11:00:00 12.3 19 Oeste 47 Oeste 0 -- -- 67
2020-09-07 10:00:00 10.4 25 Oeste 64 Noroeste 0 -- -- 73
2020-09-07 09:00:00 9 35 Oeste 59 Oeste 0 -- -- 77
2020-09-07 08:00:00 8 31 Oeste 53 Oeste 0 -- -- 81
2020-09-07 07:00:00 8.1 26 Oeste 55 Oeste 0 -- -- 81
2020-09-07 06:00:00 8.4 31 Oeste 58 Noroeste 0 -- -- 81
2020-09-07 05:00:00 8.8 30 Oeste 51 Oeste 0 -- -- 83
2020-09-07 04:00:00 9.1 27 Oeste 50 Oeste 0 -- -- 83
2020-09-07 03:00:00 9.3 29 Oeste 47 Oeste 0 -- -- 85
2020-09-07 02:00:00 9.8 28 Oeste 47 Oeste 0 -- -- 85
2020-09-07 01:00:00 10.4 26 Oeste 43 Oeste 0.4 -- -- 86
2020-09-07 00:00:00 10.8 20 Oeste 41 Oeste 0.4 -- -- 88
2020-09-06 23:00:00 13.2 20 Oeste 42 Oeste 1.8 -- -- 78
2020-09-06 22:00:00 14.5 22 Oeste 37 Oeste 0 -- -- 64
2020-09-06 21:00:00 15.5 15 Oeste 26 Oeste 0 -- -- 66
2020-09-06 20:00:00 18.4 6 Noroeste 15 Oeste 0 -- -- 62
2020-09-06 19:00:00 19.4 5 Este 11 Este 0 -- -- 80
2020-09-06 18:00:00 20.7 6 Este 12 Este 0 -- -- 71
2020-09-06 17:00:00 20.7 8 Este 24 Este 0 -- -- 70
2020-09-06 16:00:00 22.1 12 Este 30 Este 0 -- -- 61
2020-09-06 15:00:00 23.2 7 Este 27 Este 0 -- -- 56
2020-09-06 14:00:00 24.1 6 Sudeste 18 Sudeste 0 -- -- 47
2020-09-06 13:00:00 22.1 5 Oeste 15 Oeste 0 -- -- 54
2020-09-06 12:00:00 20.1 9 Oeste 23 Oeste 0 -- -- 59
2020-09-06 11:00:00 17.7 14 Oeste 32 Oeste 0 -- -- 67
2020-09-06 10:00:00 14.9 22 Oeste 36 Oeste 0 -- -- 76
2020-09-06 09:00:00 13.2 21 Oeste 35 Oeste 0 -- -- 83
2020-09-06 08:00:00 11.7 22 Oeste 34 Oeste 0 -- -- 88
2020-09-06 07:00:00 11.7 24 Oeste 40 Oeste 0 -- -- 88
2020-09-06 06:00:00 12 23 Oeste 36 Oeste 0 -- -- 88
2020-09-06 05:00:00 12.4 21 Oeste 38 Oeste 0 -- -- 86
2020-09-06 04:00:00 12.9 24 Oeste 37 Oeste 0 -- -- 85
2020-09-06 03:00:00 13.6 21 Oeste 35 Oeste 0 -- -- 83
2020-09-06 02:00:00 14 16 Oeste 26 Oeste 0 -- -- 84
2020-09-06 01:00:00 14.9 12 Oeste 20 Oeste 0 -- -- 84
2020-09-06 00:00:00 15.7 9 Oeste 14 Oeste 0 -- -- 84
2020-09-05 23:00:00 16.4 3 Sudeste 8 Sur 0 -- -- 79
2020-09-05 22:00:00 16.1 0 Calma 4 Oeste 0 -- -- 87
2020-09-05 21:00:00 16.4 4 Oeste 6 Oeste 0 -- -- 86
2020-09-05 20:00:00 18 4 Este 14 Este 0 -- -- 83
2020-09-05 19:00:00 19.5 7 Este 19 Sudeste 0 -- -- 78
2020-09-05 18:00:00 21.4 9 Este 21 Este 0 -- -- 70
2020-09-05 17:00:00 22.9 9 Este 21 Este 0 -- -- 65
2020-09-05 16:00:00 23.5 11 Este 22 Este 0 -- -- 61
2020-09-05 15:00:00 23.9 9 Este 22 Este 0 -- -- 58
2020-09-05 14:00:00 24.3 8 Este 18 Este 0 -- -- 51
2020-09-05 13:00:00 23.4 8 Este 18 Este 0 -- -- 48
2020-09-05 12:00:00 21.9 8 Este 15 Este 0 -- -- 49
2020-09-05 11:00:00 20.8 8 Este 14 Este 0 -- -- 52
2020-09-05 10:00:00 19.8 5 Este 10 Este 0 -- -- 54
2020-09-05 09:00:00 17.9 2 Nordeste 5 Este 0 -- -- 54
2020-09-05 08:00:00 14.1 0 Calma 3 Oeste 0 -- -- 58
2020-09-05 07:00:00 13.6 0 Calma 7 Sur 0 -- -- 61
2020-09-05 06:00:00 14 3 Sur 9 Sudeste 0 -- -- 53
2020-09-05 05:00:00 13.9 0 Calma 8 Sudeste 0 -- -- 68
2020-09-05 04:00:00 14.2 2 Sudeste 12 Sur 0 -- -- 59
2020-09-05 03:00:00 13.9 5 Sur 11 Sudeste 0 -- -- 65
2020-09-05 02:00:00 13.4 3 Sudeste 10 Sudeste 0 -- -- 58
2020-09-05 01:00:00 14.3 0 Calma 7 Sudeste 0 -- -- 73
2020-09-05 00:00:00 14.4 3 Sudeste 11 Sudeste 0 -- -- 71
2020-09-04 23:00:00 14.3 5 Sudeste 10 Sur 0 -- -- 81
2020-09-04 22:00:00 13.6 0 Calma 7 Este 0 -- -- 85
2020-09-04 21:00:00 15.1 0 Calma 9 Este 0 -- -- 80
2020-09-04 20:00:00 17.1 6 Este 22 Este 0 -- -- 78
2020-09-04 19:00:00 18.4 11 Este 25 Este 0 -- -- 76
2020-09-04 18:00:00 20.1 13 Este 26 Sudeste 0 -- -- 70
2020-09-04 17:00:00 21.5 10 Este 25 Este 0 -- -- 69
2020-09-04 16:00:00 22.4 11 Este 25 Este 0 -- -- 62
2020-09-04 15:00:00 23 10 Este 32 Este 0 -- -- 60
2020-09-04 14:00:00 22.5 11 Este 27 Este 0 -- -- 49
2020-09-04 13:00:00 22.3 11 Este 25 Este 0 -- -- 45
2020-09-04 12:00:00 21.2 11 Este 26 Este 0 -- -- 49
2020-09-04 11:00:00 20.4 9 Este 16 Este 0 -- -- 50
2020-09-04 10:00:00 20 5 Este 17 Sudeste 0 -- -- 47
2020-09-04 09:00:00 17.5 4 Sudeste 12 Sudeste 0 -- -- 50
2020-09-04 08:00:00 13.7 0 Calma 7 Sudeste 0 -- -- 62
2020-09-04 07:00:00 14 3 Sudeste 11 Sudeste 0 -- -- 59
2020-09-04 06:00:00 13.9 5 Sur 11 Sudeste 0 -- -- 58
2020-09-04 05:00:00 13.6 3 Sur 8 Sur 0 -- -- 66
2020-09-04 04:00:00 14.6 4 Sur 8 Sur 0 -- -- 70
2020-09-04 03:00:00 14.8 4 Sur 9 Sur 0 -- -- 71
2020-09-04 02:00:00 14.7 4 Sur 11 Sur 0 -- -- 61
2020-09-04 01:00:00 14.2 3 Sudeste 13 Sudeste 0 -- -- 70
2020-09-04 00:00:00 14 3 Sudeste 13 Sudeste 0 -- -- 76
2020-09-03 23:00:00 14.5 3 Sudeste 13 Sur 0 -- -- 82
2020-09-03 22:00:00 14.1 0 Calma 4 Sudeste 0 -- -- 90
2020-09-03 21:00:00 15.8 2 Este 18 Este 0 -- -- 84
2020-09-03 20:00:00 17.3 9 Este 19 Este 0 -- -- 81
2020-09-03 19:00:00 18.4 10 Este 23 Este 0 -- -- 78
2020-09-03 18:00:00 18.6 11 Este 22 Este 0 -- -- 80
2020-09-03 17:00:00 18.9 10 Este 25 Este 0 -- -- 81
2020-09-03 16:00:00 20.3 10 Este 23 Este 0 -- -- 74
2020-09-03 15:00:00 19.9 10 Este 24 Este 0 -- -- 68
2020-09-03 14:00:00 22.4 13 Este 27 Este 0 -- -- 56
2020-09-03 13:00:00 21.9 10 Este 22 Nordeste 0 -- -- 48
2020-09-03 12:00:00 20.7 10 Este 20 Este 0 -- -- 43
2020-09-03 11:00:00 20.2 5 Este 13 Nordeste 0 -- -- 43
2020-09-03 10:00:00 18.4 3 Este 9 Sudeste 0 -- -- 42
2020-09-03 09:00:00 16 2 Norte 3 Norte 0 -- -- 48
2020-09-03 08:00:00 12 2 Sudeste 6 Oeste 0 -- -- 57
2020-09-03 07:00:00 10.7 6 Oeste 10 Oeste 0 -- -- 64
2020-09-03 06:00:00 11.4 8 Oeste 11 Oeste 0 -- -- 62
2020-09-03 05:00:00 11.1 8 Oeste 13 Oeste 0 -- -- 63
2020-09-03 04:00:00 11.9 9 Oeste 18 Oeste 0 -- -- 61
2020-09-03 03:00:00 12 12 Oeste 18 Oeste 0 -- -- 61
2020-09-03 02:00:00 11.5 10 Oeste 18 Oeste 0 -- -- 61
2020-09-03 01:00:00 11.4 11 Oeste 14 Oeste 0 -- -- 69
2020-09-03 00:00:00 11.3 8 Oeste 12 Oeste 0 -- -- 88
2020-09-02 23:00:00 12.9 7 Oeste 10 Oeste 0 -- -- 91
2020-09-02 22:00:00 13.8 6 Oeste 9 Oeste 0 -- -- 88
2020-09-02 21:00:00 15.8 2 Sudeste 9 Este 0 -- -- 85
2020-09-02 20:00:00 16.4 4 Este 11 Sudeste 0 -- -- 83
2020-09-02 19:00:00 17.5 5 Sudeste 15 Este 0 -- -- 79
2020-09-02 18:00:00 17.7 7 Este 17 Este 0 -- -- 74
2020-09-02 17:00:00 18.5 8 Este 26 Este 0 -- -- 69
2020-09-02 16:00:00 20 12 Este 27 Este 0 -- -- 59
2020-09-02 15:00:00 19.6 10 Este 21 Este 0 -- -- 57
2020-09-02 14:00:00 20.8 7 Oeste 22 Oeste 0 -- -- 38
2020-09-02 13:00:00 19.7 8 Oeste 18 Oeste 0 -- -- 39
2020-09-02 12:00:00 18.1 10 Oeste 27 Oeste 0 -- -- 47
2020-09-02 11:00:00 16.2 13 Oeste 30 Oeste 0 -- -- 56
2020-09-02 10:00:00 14.4 17 Oeste 30 Oeste 0 -- -- 63
2020-09-02 09:00:00 12 17 Oeste 30 Oeste 0 -- -- 72
2020-09-02 08:00:00 10.2 18 Oeste 35 Oeste 0 -- -- 77
2020-09-02 07:00:00 10.2 22 Oeste 33 Oeste 0 -- -- 73
2020-09-02 06:00:00 10.5 21 Oeste 32 Oeste 0 -- -- 68
2020-09-02 05:00:00 11.2 19 Oeste 29 Oeste 0 -- -- 64
2020-09-02 04:00:00 11.6 17 Oeste 28 Oeste 0 -- -- 61
2020-09-02 03:00:00 12.2 18 Oeste 28 Oeste 0 -- -- 59
2020-09-02 02:00:00 12.9 18 Oeste 28 Noroeste 0 -- -- 57
2020-09-02 01:00:00 11.5 9 Oeste 14 Oeste 0 -- -- 56
2020-09-02 00:00:00 11.4 9 Oeste 11 Oeste 0 -- -- 62
2020-09-01 23:00:00 11.2 8 Sudoeste 10 Sudoeste 0 -- -- 65
2020-09-01 22:00:00 13.2 7 Oeste 13 Oeste 0 -- -- 84
2020-09-01 21:00:00 14.6 8 Oeste 12 Oeste 0 -- -- 87
2020-09-01 20:00:00 15.6 2 Este 9 Este 0 -- -- 85
2020-09-01 19:00:00 16.3 5 Este 19 Este 0 -- -- 86
2020-09-01 18:00:00 17.6 6 Este 13 Este 0 -- -- 76
2020-09-01 17:00:00 17.9 6 Este 13 Sudeste 0 -- -- 73
2020-09-01 16:00:00 17.9 7 Este 16 Este 0 -- -- 69
2020-09-01 15:00:00 18.9 9 Este 21 Sudeste 0 -- -- 64
2020-09-01 14:00:00 19.3 10 Este 21 Este 0 -- -- 61
2020-09-01 13:00:00 18.1 9 Este 24 Este 0 -- -- 60
2020-09-01 12:00:00 17.7 5 Este 16 Este 0 -- -- 56
2020-09-01 11:00:00 17.2 8 Este 19 Este 0 -- -- 48
2020-09-01 10:00:00 16.2 4 Este 9 Este 0 -- -- 50
2020-09-01 09:00:00 12.9 0 Calma 3 Sudeste 0 -- -- 62
2020-09-01 08:00:00 11.9 0 Calma 8 Nordeste 0 -- -- 65
2020-09-01 07:00:00 12.3 4 Nordeste 11 Nordeste 0 -- -- 65
2020-09-01 06:00:00 11.5 4 Noroeste 8 Nordeste 0 -- -- 72
2020-09-01 05:00:00 11.6 3 Noroeste 6 Oeste 0 -- -- 73
2020-09-01 04:00:00 11.7 3 Sudoeste 6 Sur 0 -- -- 73
2020-09-01 03:00:00 12 3 Sudoeste 7 Sur 0 -- -- 72
2020-09-01 02:00:00 12.1 5 Sudoeste 9 Sur 0 -- -- 72
2020-09-01 01:00:00 13.1 4 Sur 10 Sur 0 -- -- 65
2020-09-01 00:00:00 13.1 3 Sur 9 Sudeste 0 -- -- 67
2020-08-31 23:00:00 12.9 2 Este 6 Sudeste 0 -- -- 68
2020-08-31 22:00:00 13.3 3 Sudeste 8 Oeste 0 -- -- 66
2020-08-31 21:00:00 13.5 2 Oeste 4 Sudoeste 0 -- -- 64
2020-08-31 20:00:00 15.2 0 Calma 12 Este 0 -- -- 59
2020-08-31 19:00:00 16.2 7 Este 22 Este 0 -- -- 55
2020-08-31 18:00:00 17.9 10 Este 26 Este 0 -- -- 51
2020-08-31 17:00:00 19.6 10 Este 26 Este 0 -- -- 44
2020-08-31 16:00:00 19.4 7 Este 31 Este 0 -- -- 42
2020-08-31 15:00:00 19.8 12 Este 27 Sudeste 0 -- -- 42
2020-08-31 14:00:00 18.7 6 Noroeste 18 Sudoeste 0 -- -- 30
2020-08-31 13:00:00 17.9 9 Oeste 22 Oeste 0 -- -- 36
2020-08-31 12:00:00 16.2 12 Oeste 30 Oeste 0 -- -- 47
2020-08-31 11:00:00 13.4 19 Oeste 34 Oeste 0 -- -- 55
2020-08-31 10:00:00 11.3 18 Oeste 37 Oeste 0 -- -- 61
2020-08-31 09:00:00 9.1 20 Oeste 36 Oeste 0 -- -- 70
2020-08-31 08:00:00 7.1 14 Oeste 32 Oeste 0 -- -- 79
2020-08-31 07:00:00 6.3 11 Oeste 29 Oeste 0 -- -- 82
2020-08-31 06:00:00 6.7 14 Oeste 28 Oeste 0 -- -- 81
2020-08-31 05:00:00 6.9 15 Oeste 32 Noroeste 0 -- -- 80
2020-08-31 04:00:00 7.6 24 Oeste 44 Oeste 0 -- -- 77
2020-08-31 03:00:00 7.9 27 Oeste 50 Oeste 0 -- -- 76
2020-08-31 02:00:00 8.1 27 Oeste 44 Oeste 0 -- -- 74
2020-08-31 01:00:00 8.7 26 Oeste 39 Noroeste 0 -- -- 71
2020-08-31 00:00:00 9.4 22 Noroeste 44 Noroeste 0 -- -- 71
2020-08-30 23:00:00 9.9 23 Oeste 52 Noroeste 0 -- -- 68
2020-08-30 22:00:00 10.6 24 Oeste 49 Noroeste 0 -- -- 65
2020-08-30 21:00:00 11.3 18 Noroeste 41 Noroeste 0 -- -- 61
2020-08-30 20:00:00 13 14 Noroeste 35 Noroeste 0 -- -- 56
2020-08-30 19:00:00 14.6 17 Noroeste 35 Noroeste 0 -- -- 49
2020-08-30 18:00:00 16.4 15 Noroeste 39 Noroeste 0 -- -- 44
2020-08-30 17:00:00 17 19 Noroeste 39 Noroeste 0 -- -- 42
2020-08-30 16:00:00 17.3 19 Noroeste 44 Noroeste 0 -- -- 42
2020-08-30 15:00:00 16.6 24 Noroeste 46 Oeste 0 -- -- 47
2020-08-30 14:00:00 15.5 29 Oeste 53 Noroeste 0 -- -- 48
2020-08-30 13:00:00 14.3 27 Oeste 51 Oeste 0 -- -- 55
2020-08-30 12:00:00 13.1 28 Oeste 60 Oeste 0 -- -- 59
2020-08-30 11:00:00 11.6 32 Oeste 66 Oeste 0 -- -- 63
2020-08-30 10:00:00 9.6 35 Noroeste 58 Noroeste 0 -- -- 69
2020-08-30 09:00:00 8 33 Noroeste 58 Noroeste 0 -- -- 74
2020-08-30 08:00:00 7 36 Oeste 71 Oeste 0 -- -- 74
2020-08-30 07:00:00 6.8 40 Oeste 71 Oeste 0 -- -- 76
2020-08-30 06:00:00 6.9 43 Oeste 72 Oeste 0 -- -- 76
2020-08-30 05:00:00 7.3 45 Oeste 75 Oeste 0 -- -- 79
2020-08-30 04:00:00 7.6 45 Oeste 75 Oeste 0 -- -- 80
2020-08-30 03:00:00 8.1 42 Oeste 75 Oeste 0 -- -- 78
2020-08-30 02:00:00 8.8 45 Oeste 74 Oeste 0 -- -- 80
2020-08-30 01:00:00 9.2 42 Oeste 68 Oeste 0 -- -- 78
2020-08-30 00:00:00 9.8 28 Noroeste 59 Oeste 0 -- -- 77
2020-08-29 23:00:00 10.3 33 Oeste 64 Oeste 0 -- -- 73
2020-08-29 22:00:00 11 28 Noroeste 54 Oeste 0 -- -- 65
2020-08-29 21:00:00 12.6 34 Noroeste 58 Noroeste 0 -- -- 60
2020-08-29 20:00:00 14.1 23 Noroeste 51 Noroeste 0 -- -- 52
2020-08-29 19:00:00 15.7 22 Oeste 43 Oeste 0 -- -- 48
2020-08-29 18:00:00 16.5 18 Oeste 41 Noroeste 0 -- -- 46
2020-08-29 17:00:00 15.8 22 Noroeste 54 Noroeste 0 -- -- 48
2020-08-29 16:00:00 17 28 Noroeste 53 Noroeste 0 -- -- 51
2020-08-29 15:00:00 13.8 28 Noroeste 48 Oeste 0 -- -- 58
2020-08-29 14:00:00 12.9 28 Noroeste 51 Noroeste 0 -- -- 62
2020-08-29 13:00:00 14.6 29 Oeste 51 Oeste 0 -- -- 60
2020-08-29 12:00:00 12.5 31 Oeste 54 Oeste 0 -- -- 66
2020-08-29 11:00:00 10.8 31 Oeste 58 Oeste 0 -- -- 71
2020-08-29 10:00:00 10.5 30 Oeste 58 Oeste 0 -- -- 67
2020-08-29 09:00:00 9.6 30 Oeste 51 Oeste 0 -- -- 71
2020-08-29 08:00:00 9.7 31 Oeste 48 Oeste 0 -- -- 76
2020-08-29 07:00:00 9.9 26 Oeste 44 Oeste 0 -- -- 80
2020-08-29 06:00:00 10.1 26 Oeste 44 Oeste 0 -- -- 82
2020-08-29 05:00:00 10.2 27 Oeste 45 Oeste 0 -- -- 82
2020-08-29 04:00:00 10.5 26 Oeste 47 Oeste 0 -- -- 81
2020-08-29 03:00:00 10.8 28 Oeste 50 Oeste 0 -- -- 82
2020-08-29 02:00:00 11.1 32 Oeste 46 Oeste 0 -- -- 85
2020-08-29 01:00:00 11.8 27 Oeste 46 Oeste 0 -- -- 85
2020-08-29 00:00:00 12.4 27 Oeste 41 Oeste 0.2 -- -- 86
2020-08-28 23:00:00 13.4 21 Oeste 39 Oeste 0 -- -- 86
2020-08-28 22:00:00 14.5 19 Oeste 35 Oeste 0 -- -- 87
2020-08-28 21:00:00 16.3 19 Oeste 30 Oeste 0 -- -- 91
2020-08-28 20:00:00 17.5 11 Oeste 20 Oeste 0 -- -- 90
2020-08-28 19:00:00 16.9 4 Nordeste 37 Oeste 5.2 -- -- 91
2020-08-28 18:00:00 20.4 3 Sudoeste 9 Oeste 0 -- -- 88
2020-08-28 17:00:00 20.7 6 Este 15 Este 0 -- -- 88
2020-08-28 16:00:00 21.7 9 Este 19 Este 0 -- -- 83
2020-08-28 15:00:00 23.8 8 Este 22 Este 0 -- -- 66
2020-08-28 14:00:00 24.5 10 Este 23 Este 0 -- -- 63
2020-08-28 13:00:00 22.9 7 Este 17 Este 0 -- -- 70
2020-08-28 12:00:00 22 8 Este 14 Este 0 -- -- 75
2020-08-28 11:00:00 20.8 6 Este 13 Este 0 -- -- 76
2020-08-28 10:00:00 18.8 4 Este 9 Este 0 -- -- 88
2020-08-28 09:00:00 18.2 3 Este 6 Nordeste 0 -- -- 87
2020-08-28 08:00:00 16.9 0 Calma 8 Este 0 -- -- 92
2020-08-28 07:00:00 17 3 Este 5 Este 0 -- -- 92
2020-08-28 06:00:00 17.1 0 Calma 6 Este 0 -- -- 92
2020-08-28 05:00:00 16.9 7 Sudoeste 14 Sudoeste 0 -- -- 86
2020-08-28 04:00:00 17.3 5 Oeste 8 Oeste 0 -- -- 89
2020-08-28 03:00:00 18.2 0 Calma 6 Este 0 -- -- 87
2020-08-28 02:00:00 19.4 4 Este 17 Sudeste 0 -- -- 79
2020-08-28 01:00:00 20 4 Sudeste 13 Sur 0 -- -- 72
2020-08-28 00:00:00 20.2 5 Sudeste 14 Este 0 -- -- 84
2020-08-27 23:00:00 20.2 4 Sudeste 13 Sudeste 0 -- -- 86
2020-08-27 22:00:00 20.1 0 Calma 5 Este 0 -- -- 85
2020-08-27 21:00:00 21.3 0 Calma 5 Sudeste 0 -- -- 83
2020-08-27 20:00:00 21.9 2 Noroeste 6 Este 0 -- -- 81
2020-08-27 19:00:00 22.4 4 Sudeste 11 Este 0 -- -- 80
2020-08-27 18:00:00 22.4 6 Este 15 Sudeste 0 -- -- 81
2020-08-27 17:00:00 24.6 8 Este 18 Este 0 -- -- 74
2020-08-27 16:00:00 25.2 8 Este 23 Este 0 -- -- 71
2020-08-27 15:00:00 26.3 9 Este 22 Este 0 -- -- 63
2020-08-27 14:00:00 26.4 9 Este 21 Este 0 -- -- 61
2020-08-27 13:00:00 25.4 8 Este 16 Este 0 -- -- 65
2020-08-27 12:00:00 24.6 9 Este 17 Este 0 -- -- 67
2020-08-27 11:00:00 24.1 6 Este 13 Este 0 -- -- 65
2020-08-27 10:00:00 23.8 2 Oeste 15 Oeste 0 -- -- 65
2020-08-27 09:00:00 22 2 Sudeste 11 Oeste 0 -- -- 68
2020-08-27 08:00:00 19.3 8 Oeste 14 Oeste 0 -- -- 77
2020-08-27 07:00:00 18.5 10 Oeste 15 Oeste 0 -- -- 73
2020-08-27 06:00:00 18.7 10 Oeste 15 Oeste 0 -- -- 77
2020-08-27 05:00:00 19.1 10 Oeste 15 Oeste 0 -- -- 79
2020-08-27 04:00:00 19.1 3 Noroeste 6 Noroeste 0 -- -- 58
2020-08-27 03:00:00 19.8 3 Norte 6 Sur 0 -- -- 55
2020-08-27 02:00:00 20.6 4 Sur 13 Sur 0 -- -- 51
2020-08-27 01:00:00 21.4 9 Sur 17 Sudeste 0 -- -- 56
2020-08-27 00:00:00 20.3 5 Sur 14 Sur 0 -- -- 81
2020-08-26 23:00:00 20.4 2 Sudeste 7 Sudeste 0 -- -- 90
2020-08-26 22:00:00 20.9 0 Calma 8 Sudeste 0 -- -- 86
2020-08-26 21:00:00 21.4 3 Sudoeste 6 Sudeste 0 -- -- 86
2020-08-26 20:00:00 22.6 2 Sudeste 6 Este 0 -- -- 84
2020-08-26 19:00:00 23.6 5 Este 17 Sudeste 0 -- -- 81
2020-08-26 18:00:00 24.6 8 Este 16 Este 0 -- -- 77
2020-08-26 17:00:00 25.6 9 Este 20 Este 0 -- -- 72
2020-08-26 16:00:00 26.3 9 Este 22 Este 0 -- -- 68
2020-08-26 15:00:00 26.7 9 Este 21 Este 0 -- -- 61
2020-08-26 14:00:00 25.8 9 Este 19 Este 0 -- -- 63
2020-08-26 13:00:00 24.8 9 Este 18 Este 0 -- -- 68
2020-08-26 12:00:00 24.4 8 Este 18 Sudeste 0 -- -- 63
2020-08-26 11:00:00 22.3 8 Este 14 Este 0 -- -- 71
2020-08-26 10:00:00 22 4 Este 10 Este 0 -- -- 73
2020-08-26 09:00:00 21 3 Este 6 Este 0 -- -- 64
2020-08-26 08:00:00 18.8 0 Calma 5 Sudeste 0 -- -- 57
2020-08-26 07:00:00 18.7 5 Sudoeste 13 Oeste 0 -- -- 53
2020-08-26 06:00:00 18.8 8 Oeste 9 Oeste 0 -- -- 51
2020-08-26 05:00:00 20 3 Oeste 12 Sur 0 -- -- 46
2020-08-26 04:00:00 22.8 6 Sur 19 Sudeste 0 -- -- 40
2020-08-26 03:00:00 22.7 8 Sur 22 Sudeste 0 -- -- 39
2020-08-26 02:00:00 22.5 7 Sur 18 Sur 0 -- -- 39
2020-08-26 01:00:00 22.1 8 Sur 18 Sur 0 -- -- 41
2020-08-26 00:00:00 20.8 5 Sudeste 17 Sudeste 0 -- -- 51
2020-08-25 23:00:00 20.5 5 Sudeste 15 Sudeste 0 -- -- 62
2020-08-25 22:00:00 19.2 3 Este 7 Sudeste 0 -- -- 74
2020-08-25 21:00:00 20.7 3 Este 6 Sudeste 0 -- -- 73
2020-08-25 20:00:00 22.6 4 Sudeste 12 Este 0 -- -- 73
2020-08-25 19:00:00 23.8 6 Sudeste 19 Este 0 -- -- 69
2020-08-25 18:00:00 24.9 10 Este 24 Este 0 -- -- 67
2020-08-25 17:00:00 25.7 11 Este 23 Este 0 -- -- 65
2020-08-25 16:00:00 25.8 11 Este 24 Nordeste 0 -- -- 68
2020-08-25 15:00:00 25.7 11 Este 23 Este 0 -- -- 70
2020-08-25 14:00:00 26.6 11 Este 24 Este 0 -- -- 62
2020-08-25 13:00:00 26 12 Este 21 Este 0 -- -- 61
2020-08-25 12:00:00 25.9 9 Este 16 Este 0 -- -- 60
2020-08-25 11:00:00 26.1 4 Nordeste 14 Oeste 0 -- -- 57
2020-08-25 10:00:00 23.9 8 Oeste 17 Oeste 0 -- -- 57
2020-08-25 09:00:00 21 9 Oeste 14 Oeste 0 -- -- 72
2020-08-25 08:00:00 17.4 3 Noroeste 4 Noroeste 0 -- -- 87
2020-08-25 07:00:00 17 0 Calma 6 Sur 0 -- -- 86
2020-08-25 06:00:00 17 5 Sudoeste 7 Sudoeste 0 -- -- 88
2020-08-25 05:00:00 17.4 2 Noroeste 11 Oeste 0 -- -- 88
2020-08-25 04:00:00 17 10 Oeste 12 Oeste 0 -- -- 92
2020-08-25 03:00:00 16.9 2 Noroeste 5 Oeste 0 -- -- 91
2020-08-25 02:00:00 17.8 0 Calma 9 Sudoeste 0 -- -- 88
2020-08-25 01:00:00 18.4 2 Sudeste 5 Este 0 -- -- 86
2020-08-25 00:00:00 18.7 2 Sudeste 8 Sur 0 -- -- 84
2020-08-24 23:00:00 18.1 3 Sur 7 Sudeste 0 -- -- 85
2020-08-24 22:00:00 17.4 4 Noroeste 9 Oeste 0 -- -- 83
2020-08-24 21:00:00 18.4 0 Calma 8 Sudeste 0 -- -- 78
2020-08-24 20:00:00 19.8 4 Sudeste 12 Sudeste 0 -- -- 72
2020-08-24 19:00:00 20.8 5 Sudeste 17 Este 0 -- -- 67
2020-08-24 18:00:00 21.7 10 Este 23 Este 0 -- -- 62
2020-08-24 17:00:00 22.7 11 Este 26 Este 0 -- -- 57
2020-08-24 16:00:00 23.8 9 Este 26 Este 0 -- -- 47
2020-08-24 15:00:00 23.6 12 Este 25 Este 0 -- -- 42
2020-08-24 14:00:00 24 17 Este 28 Este 0 -- -- 39
2020-08-24 13:00:00 22.9 3 Noroeste 13 Oeste 0 -- -- 39
2020-08-24 12:00:00 22 8 Oeste 18 Noroeste 0 -- -- 41
2020-08-24 11:00:00 19.6 15 Oeste 34 Noroeste 0 -- -- 43
2020-08-24 10:00:00 17.1 21 Oeste 37 Oeste 0 -- -- 47
2020-08-24 09:00:00 15.6 23 Oeste 42 Oeste 0 -- -- 47
2020-08-24 08:00:00 14.4 26 Oeste 39 Oeste 0 -- -- 50
2020-08-24 07:00:00 14 25 Oeste 36 Oeste 0 -- -- 44
2020-08-24 06:00:00 14 24 Oeste 38 Noroeste 0 -- -- 44
2020-08-24 05:00:00 14.1 21 Oeste 34 Oeste 0 -- -- 54
2020-08-24 04:00:00 14.3 22 Oeste 32 Oeste 0 -- -- 53
2020-08-24 03:00:00 14.8 17 Oeste 30 Oeste 0 -- -- 54
2020-08-24 02:00:00 14.9 18 Oeste 32 Oeste 0 -- -- 60
2020-08-24 01:00:00 14.9 17 Oeste 25 Oeste 0 -- -- 53
2020-08-24 00:00:00 15.5 16 Oeste 24 Oeste 0 -- -- 51
2020-08-23 23:00:00 16.3 14 Oeste 21 Oeste 0 -- -- 51
2020-08-23 22:00:00 16 11 Oeste 16 Oeste 0 -- -- 58
2020-08-23 21:00:00 17.7 3 Oeste 4 Sudoeste 0 -- -- 82
2020-08-23 20:00:00 19.4 2 Este 9 Este 0 -- -- 79
2020-08-23 19:00:00 20.2 5 Este 14 Este 0 -- -- 75
2020-08-23 18:00:00 21.4 8 Este 19 Este 0 -- -- 69
2020-08-23 17:00:00 22.3 9 Este 25 Este 0 -- -- 65
2020-08-23 16:00:00 23.1 9 Este 18 Este 0 -- -- 60
2020-08-23 15:00:00 22.2 8 Este 18 Este 0 -- -- 55
2020-08-23 14:00:00 21.4 6 Este 12 Este 0 -- -- 55
2020-08-23 13:00:00 20.4 6 Este 14 Este 0 -- -- 56
2020-08-23 12:00:00 19.9 2 Sudeste 15 Oeste 0 -- -- 57
2020-08-23 11:00:00 18.8 11 Oeste 25 Oeste 0 -- -- 60
2020-08-23 10:00:00 16.7 17 Oeste 35 Oeste 0 -- -- 65
2020-08-23 09:00:00 15.2 19 Oeste 32 Noroeste 0 -- -- 69
2020-08-23 08:00:00 13.8 20 Oeste 39 Oeste 0 -- -- 73
2020-08-23 07:00:00 13.7 24 Oeste 43 Noroeste 0 -- -- 75
2020-08-23 06:00:00 14.4 22 Oeste 36 Oeste 0 -- -- 65
2020-08-23 05:00:00 15.7 23 Oeste 40 Oeste 0 -- -- 56
2020-08-23 04:00:00 16.3 21 Oeste 33 Oeste 0 -- -- 55
2020-08-23 03:00:00 16.4 21 Oeste 33 Oeste 0 -- -- 57
2020-08-23 02:00:00 17.1 20 Oeste 33 Oeste 0 -- -- 61
2020-08-23 01:00:00 17.6 17 Oeste 28 Oeste 0 -- -- 61
2020-08-23 00:00:00 18.3 17 Oeste 24 Oeste 0 -- -- 60
2020-08-22 23:00:00 17.9 8 Oeste 10 Oeste 0 -- -- 63
2020-08-22 22:00:00 18.4 8 Oeste 11 Oeste 0 -- -- 76
2020-08-22 21:00:00 20.3 3 Sudoeste 8 Sudoeste 0 -- -- 83
2020-08-22 20:00:00 21.8 2 Sudeste 12 Sudeste 0 -- -- 78
2020-08-22 19:00:00 22.5 6 Este 13 Sudeste 0 -- -- 76
2020-08-22 18:00:00 22.8 5 Este 18 Sudeste 0 -- -- 74
2020-08-22 17:00:00 24 11 Este 20 Este 0 -- -- 67
2020-08-22 16:00:00 23.8 8 Sudeste 22 Este 0 -- -- 64
2020-08-22 15:00:00 25.3 9 Este 22 Este 0 -- -- 54
2020-08-22 14:00:00 24.3 8 Este 20 Este 0 -- -- 61
2020-08-22 13:00:00 24.4 5 Sudeste 16 Este 0 -- -- 60
2020-08-22 12:00:00 23.7 6 Noroeste 20 Noroeste 0 -- -- 61
2020-08-22 11:00:00 22.4 12 Noroeste 24 Oeste 0 -- -- 65
2020-08-22 10:00:00 20.3 17 Oeste 37 Noroeste 0 -- -- 68
2020-08-22 09:00:00 18 23 Oeste 43 Oeste 0 -- -- 75
2020-08-22 08:00:00 16.7 25 Oeste 44 Oeste 0 -- -- 82
2020-08-22 07:00:00 16.4 24 Oeste 39 Noroeste 0 -- -- 87
2020-08-22 06:00:00 16.9 22 Oeste 39 Oeste 0 -- -- 81
2020-08-22 05:00:00 17.5 25 Oeste 41 Oeste 0 -- -- 79
2020-08-22 04:00:00 18.1 28 Oeste 42 Oeste 0 -- -- 78
2020-08-22 03:00:00 18.5 24 Oeste 41 Oeste 0 -- -- 76
2020-08-22 02:00:00 19.6 21 Oeste 29 Oeste 0 -- -- 74
2020-08-22 01:00:00 21.7 18 Oeste 31 Oeste 0 -- -- 53
2020-08-22 00:00:00 20 6 Oeste 15 Oeste 0 -- -- 67
2020-08-21 23:00:00 19.6 5 Sudoeste 8 Sur 0 -- -- 62
2020-08-21 22:00:00 20 0 Calma 5 Sudeste 0 -- -- 78
2020-08-21 21:00:00 21.3 2 Este 8 Este 0 -- -- 77
2020-08-21 20:00:00 22.9 5 Sudeste 12 Este 0 -- -- 71
2020-08-21 19:00:00 24.3 7 Este 16 Sudeste 0 -- -- 66
2020-08-21 18:00:00 25.4 10 Este 19 Este 0 -- -- 66
2020-08-21 17:00:00 25.8 11 Este 24 Este 0 -- -- 67
2020-08-21 16:00:00 26.6 12 Este 23 Este 0 -- -- 64
2020-08-21 15:00:00 26.8 9 Este 24 Este 0 -- -- 60
2020-08-21 14:00:00 26.8 10 Este 19 Este 0 -- -- 58
2020-08-21 13:00:00 26.6 10 Este 19 Este 0 -- -- 56
2020-08-21 12:00:00 25.9 8 Este 16 Este 0 -- -- 52
2020-08-21 11:00:00 24.5 4 Este 10 Este 0 -- -- 56
2020-08-21 10:00:00 22.6 3 Nordeste 9 Este 0 -- -- 60
2020-08-21 09:00:00 20.5 3 Nordeste 10 Este 0 -- -- 64
2020-08-21 08:00:00 18 4 Este 8 Sudeste 0 -- -- 72
2020-08-21 07:00:00 17.4 4 Sudeste 8 Sudeste 0 -- -- 66
2020-08-21 06:00:00 17.8 4 Nordeste 5 Norte 0 -- -- 56
2020-08-21 05:00:00 17.5 2 Nordeste 5 Este 0 -- -- 60
2020-08-21 04:00:00 16.7 0 Calma 5 Norte 0 -- -- 65
2020-08-21 03:00:00 15.8 4 Este 14 Este 0 -- -- 65
2020-08-21 02:00:00 17 6 Este 19 Este 0 -- -- 59
2020-08-21 01:00:00 17.9 10 Este 19 Este 0 -- -- 57
2020-08-21 00:00:00 15.9 7 Este 19 Este 0 -- -- 69
2020-08-20 23:00:00 16.3 5 Este 10 Este 0 -- -- 84
2020-08-20 22:00:00 17.3 4 Este 15 Este 0 -- -- 85
2020-08-20 21:00:00 18.8 6 Sudeste 21 Este 0 -- -- 85
2020-08-20 20:00:00 19.8 9 Este 24 Este 0 -- -- 82
2020-08-20 19:00:00 21.8 10 Este 34 Este 0 -- -- 71
2020-08-20 18:00:00 23.1 19 Este 37 Este 0 -- -- 61
2020-08-20 17:00:00 24.5 15 Sudeste 45 Sudeste 0 -- -- 54
2020-08-20 16:00:00 24.8 17 Este 40 Este 0 -- -- 57
2020-08-20 15:00:00 23.9 20 Este 36 Este 0 -- -- 67
2020-08-20 14:00:00 24.6 12 Este 31 Este 0 -- -- 67
2020-08-20 13:00:00 25.7 12 Este 31 Este 0 -- -- 57
2020-08-20 12:00:00 25.7 12 Este 23 Este 0 -- -- 42
2020-08-20 11:00:00 24.6 8 Este 19 Este 0 -- -- 40
2020-08-20 10:00:00 24.1 7 Este 14 Sudeste 0 -- -- 39
2020-08-20 09:00:00 23.3 4 Este 14 Sudeste 0 -- -- 36
2020-08-20 08:00:00 20.1 4 Sudeste 15 Sudeste 0 -- -- 40
2020-08-20 07:00:00 20.6 6 Sur 13 Sur 0 -- -- 36
2020-08-20 06:00:00 20.5 6 Sur 15 Sudeste 0 -- -- 39
2020-08-20 05:00:00 20 8 Sur 16 Sur 0 -- -- 37
2020-08-20 04:00:00 18.4 0 Calma 9 Sudeste 0 -- -- 37
2020-08-20 03:00:00 21.1 7 Sudeste 22 Sur 0 -- -- 30
2020-08-20 02:00:00 20.8 7 Sudeste 24 Sur 0 -- -- 31
2020-08-20 01:00:00 20.6 10 Sur 22 Sur 0 -- -- 35
2020-08-20 00:00:00 18.9 4 Sudeste 16 Sur 0 -- -- 49
2020-08-19 23:00:00 19.2 6 Sudeste 21 Sur 0 -- -- 54
2020-08-19 22:00:00 19 4 Sudeste 17 Sur 0 -- -- 71
2020-08-19 21:00:00 19.3 6 Sudeste 17 Sur 0 -- -- 80
2020-08-19 20:00:00 20.4 6 Sudeste 18 Sudeste 0 -- -- 76
2020-08-19 19:00:00 21.7 10 Este 28 Este 0 -- -- 68
2020-08-19 18:00:00 23.1 13 Este 32 Este 0 -- -- 68
2020-08-19 17:00:00 24.3 15 Este 32 Este 0 -- -- 62
2020-08-19 16:00:00 25.1 14 Este 31 Este 0 -- -- 57
2020-08-19 15:00:00 26.7 11 Este 24 Este 0 -- -- 48
2020-08-19 14:00:00 26.5 11 Este 25 Este 0 -- -- 45
2020-08-19 13:00:00 26.2 10 Este 24 Este 0 -- -- 47
2020-08-19 12:00:00 25 12 Este 23 Este 0 -- -- 43
2020-08-19 11:00:00 24.2 7 Este 15 Este 0 -- -- 48
2020-08-19 10:00:00 22.7 5 Este 15 Este 0 -- -- 51
2020-08-19 09:00:00 20.6 8 Sur 16 Sudeste 0 -- -- 54
2020-08-19 08:00:00 18.5 4 Sur 11 Sur 0 -- -- 59
2020-08-19 07:00:00 17.3 6 Sur 13 Sur 0 -- -- 59
2020-08-19 06:00:00 17 3 Sudeste 12 Sur 0 -- -- 62
2020-08-19 05:00:00 16.9 5 Sur 10 Sur 0 -- -- 67
2020-08-19 04:00:00 17.6 3 Sur 14 Sur 0 -- -- 70
2020-08-19 03:00:00 18 8 Sur 14 Sur 0 -- -- 72
2020-08-19 02:00:00 16.5 4 Sur 6 Sudeste 0 -- -- 73
2020-08-19 01:00:00 16.7 0 Calma 5 Sudeste 0 -- -- 69
2020-08-19 00:00:00 17 3 Sur 6 Sur 0 -- -- 67